North Dennis, New Jersey
Current Conditions -  °F | °C
As of 12:55 AM on Wednesday 22 Oct 2014 (Local Time) from KWWD Reporting Station
Thunderstorm Thunderstorm  
Wind Chill: 57°   Ceiling: 4600
Heat Index: 57°   Visibility: 5mi
Dew Point: 52°   Wind: 15mph
Humidity: 82%   Direction: 250°WSW
Pressure: 29.86"   Gusts: 24mph
Location:  39.1932°N, 74.8256°W
Report Text: KWWD 220455Z AUTO 25013G21KT 5SM TS BKN046 BKN050 OVC070 14/11 A2986 RMK AO1 LTG DSNT SE TSB07 P0003
Loading
Personal Weather Stations






























Interactive Weather Map
Tropical Storm Tracking
New forecast layout! Learn more

10-Day Weather Forecast

Advertisements
Track Severe Weather on mobile